sensor_id;sensor_type;location;lat;lon;timestamp;P1;durP1;ratioP1;P2;durP2;ratioP2
61702;SDS011;47622;47.726;3.298;2023-03-01T00:01:49;24.20;;;14.25;;
61702;SDS011;47622;47.726;3.298;2023-03-01T00:04:15;24.20;;;14.75;;
61702;SDS011;47622;47.726;3.298;2023-03-01T00:06:42;25.65;;;15.25;;
61702;SDS011;47622;47.726;3.298;2023-03-01T00:09:11;25.65;;;14.82;;
61702;SDS011;47622;47.726;3.298;2023-03-01T00:11:37;24.20;;;13.95;;
61702;SDS011;47622;47.726;3.298;2023-03-01T00:14:03;27.70;;;15.60;;
61702;SDS011;47622;47.726;3.298;2023-03-01T00:16:32;28.08;;;15.20;;
61702;SDS011;47622;47.726;3.298;2023-03-01T00:18:59;27.02;;;15.45;;
61702;SDS011;47622;47.726;3.298;2023-03-01T00:21:25;28.55;;;16.15;;
61702;SDS011;47622;47.726;3.298;2023-03-01T00:23:52;25.50;;;15.93;;
61702;SDS011;47622;47.726;3.298;2023-03-01T00:26:19;25.40;;;14.55;;
61702;SDS011;47622;47.726;3.298;2023-03-01T00:28:45;24.00;;;14.40;;
61702;SDS011;47622;47.726;3.298;2023-03-01T00:31:13;25.50;;;14.82;;
61702;SDS011;47622;47.726;3.298;2023-03-01T00:33:40;28.88;;;14.95;;
61702;SDS011;47622;47.726;3.298;2023-03-01T00:36:06;27.80;;;15.02;;
61702;SDS011;47622;47.726;3.298;2023-03-01T00:38:40;26.92;;;14.95;;
61702;SDS011;47622;47.726;3.298;2023-03-01T00:41:08;25.30;;;14.20;;
61702;SDS011;47622;47.726;3.298;2023-03-01T00:43:39;27.42;;;13.85;;
61702;SDS011;47622;47.726;3.298;2023-03-01T00:46:05;24.77;;;14.25;;
61702;SDS011;47622;47.726;3.298;2023-03-01T00:48:33;27.38;;;14.73;;
61702;SDS011;47622;47.726;3.298;2023-03-01T00:51:31;25.10;;;13.82;;
61702;SDS011;47622;47.726;3.298;2023-03-01T00:56:18;25.38;;;13.27;;
61702;SDS011;47622;47.726;3.298;2023-03-01T00:58:44;25.83;;;15.07;;
61702;SDS011;47622;47.726;3.298;2023-03-01T01:01:12;28.55;;;14.60;;
61702;SDS011;47622;47.726;3.298;2023-03-01T01:06:22;25.60;;;14.10;;
61702;SDS011;47622;47.726;3.298;2023-03-01T01:08:52;28.95;;;15.63;;
61702;SDS011;47622;47.726;3.298;2023-03-01T01:11:19;27.05;;;15.63;;
61702;SDS011;47622;47.726;3.298;2023-03-01T01:13:46;26.58;;;15.13;;
61702;SDS011;47622;47.726;3.298;2023-03-01T01:16:12;29.65;;;15.45;;
61702;SDS011;47622;47.726;3.298;2023-03-01T01:18:39;25.00;;;14.65;;
61702;SDS011;47622;47.726;3.298;2023-03-01T01:21:06;29.88;;;15.82;;
61702;SDS011;47622;47.726;3.298;2023-03-01T01:23:34;26.13;;;14.77;;
61702;SDS011;47622;47.726;3.298;2023-03-01T01:26:11;27.48;;;14.25;;
61702;SDS011;47622;47.726;3.298;2023-03-01T01:28:48;25.73;;;14.52;;
61702;SDS011;47622;47.726;3.298;2023-03-01T01:31:13;27.75;;;14.57;;
61702;SDS011;47622;47.726;3.298;2023-03-01T01:33:39;24.65;;;14.30;;
61702;SDS011;47622;47.726;3.298;2023-03-01T01:36:06;26.52;;;14.98;;
61702;SDS011;47622;47.726;3.298;2023-03-01T01:38:33;28.67;;;15.52;;
61702;SDS011;47622;47.726;3.298;2023-03-01T01:40:59;29.00;;;16.10;;
61702;SDS011;47622;47.726;3.298;2023-03-01T01:45:59;26.10;;;15.35;;
61702;SDS011;47622;47.726;3.298;2023-03-01T01:48:32;25.20;;;15.13;;
61702;SDS011;47622;47.726;3.298;2023-03-01T01:51:10;27.33;;;16.63;;
61702;SDS011;47622;47.726;3.298;2023-03-01T01:53:38;26.85;;;14.68;;
61702;SDS011;47622;47.726;3.298;2023-03-01T01:56:06;29.98;;;16.17;;
61702;SDS011;47622;47.726;3.298;2023-03-01T01:58:34;27.77;;;14.35;;
61702;SDS011;47622;47.726;3.298;2023-03-01T02:01:01;26.25;;;14.30;;
61702;SDS011;47622;47.726;3.298;2023-03-01T02:03:29;26.15;;;14.68;;
61702;SDS011;47622;47.726;3.298;2023-03-01T02:06:17;27.48;;;15.48;;
61702;SDS011;47622;47.726;3.298;2023-03-01T02:08:44;29.20;;;14.98;;
61702;SDS011;47622;47.726;3.298;2023-03-01T02:11:12;25.70;;;14.52;;
61702;SDS011;47622;47.726;3.298;2023-03-01T02:13:39;26.30;;;14.63;;
61702;SDS011;47622;47.726;3.298;2023-03-01T02:16:09;27.27;;;14.38;;
61702;SDS011;47622;47.726;3.298;2023-03-01T02:18:38;29.42;;;14.93;;
61702;SDS011;47622;47.726;3.298;2023-03-01T02:21:21;28.17;;;13.80;;
61702;SDS011;47622;47.726;3.298;2023-03-01T02:24:10;24.23;;;13.07;;
61702;SDS011;47622;47.726;3.298;2023-03-01T02:27:00;28.15;;;13.68;;
61702;SDS011;47622;47.726;3.298;2023-03-01T02:29:26;25.85;;;13.82;;
61702;SDS011;47622;47.726;3.298;2023-03-01T02:31:53;26.23;;;14.15;;
61702;SDS011;47622;47.726;3.298;2023-03-01T02:34:22;25.73;;;14.18;;
61702;SDS011;47622;47.726;3.298;2023-03-01T02:36:59;29.13;;;14.27;;
61702;SDS011;47622;47.726;3.298;2023-03-01T02:39:39;26.45;;;13.63;;
61702;SDS011;47622;47.726;3.298;2023-03-01T02:42:15;21.52;;;12.40;;
61702;SDS011;47622;47.726;3.298;2023-03-01T02:44:45;26.55;;;15.05;;
61702;SDS011;47622;47.726;3.298;2023-03-01T02:47:11;25.48;;;14.55;;
61702;SDS011;47622;47.726;3.298;2023-03-01T02:49:37;22.92;;;12.63;;
61702;SDS011;47622;47.726;3.298;2023-03-01T02:54:48;24.60;;;12.80;;
61702;SDS011;47622;47.726;3.298;2023-03-01T02:57:16;23.50;;;12.60;;
61702;SDS011;47622;47.726;3.298;2023-03-01T02:59:43;25.27;;;12.75;;
61702;SDS011;47622;47.726;3.298;2023-03-01T03:02:22;23.95;;;14.07;;
61702;SDS011;47622;47.726;3.298;2023-03-01T03:05:06;27.02;;;13.18;;
61702;SDS011;47622;47.726;3.298;2023-03-01T03:07:39;26.80;;;14.63;;
61702;SDS011;47622;47.726;3.298;2023-03-01T03:10:08;22.20;;;13.40;;
61702;SDS011;47622;47.726;3.298;2023-03-01T03:12:39;21.02;;;12.68;;
61702;SDS011;47622;47.726;3.298;2023-03-01T03:15:06;24.98;;;13.05;;
61702;SDS011;47622;47.726;3.298;2023-03-01T03:17:37;25.55;;;12.82;;
61702;SDS011;47622;47.726;3.298;2023-03-01T03:20:05;23.83;;;13.38;;
61702;SDS011;47622;47.726;3.298;2023-03-01T03:22:36;23.10;;;12.40;;
61702;SDS011;47622;47.726;3.298;2023-03-01T03:25:05;22.20;;;13.38;;
61702;SDS011;47622;47.726;3.298;2023-03-01T03:27:36;25.60;;;13.98;;
61702;SDS011;47622;47.726;3.298;2023-03-01T03:30:03;27.40;;;13.20;;
61702;SDS011;47622;47.726;3.298;2023-03-01T03:32:36;26.73;;;14.45;;
61702;SDS011;47622;47.726;3.298;2023-03-01T03:35:02;27.63;;;13.27;;
61702;SDS011;47622;47.726;3.298;2023-03-01T03:37:43;23.60;;;13.52;;
61702;SDS011;47622;47.726;3.298;2023-03-01T03:40:28;23.15;;;12.55;;
61702;SDS011;47622;47.726;3.298;2023-03-01T03:43:02;25.23;;;13.18;;
61702;SDS011;47622;47.726;3.298;2023-03-01T03:45:28;24.33;;;13.15;;
61702;SDS011;47622;47.726;3.298;2023-03-01T03:47:54;23.90;;;13.40;;
61702;SDS011;47622;47.726;3.298;2023-03-01T03:50:20;25.38;;;13.82;;
61702;SDS011;47622;47.726;3.298;2023-03-01T03:52:46;23.55;;;12.43;;
61702;SDS011;47622;47.726;3.298;2023-03-01T03:55:12;23.67;;;12.77;;
61702;SDS011;47622;47.726;3.298;2023-03-01T03:57:38;24.55;;;13.00;;
61702;SDS011;47622;47.726;3.298;2023-03-01T04:00:08;21.33;;;12.93;;
61702;SDS011;47622;47.726;3.298;2023-03-01T04:02:41;23.92;;;13.18;;
61702;SDS011;47622;47.726;3.298;2023-03-01T04:05:08;22.92;;;12.23;;
61702;SDS011;47622;47.726;3.298;2023-03-01T04:07:36;24.67;;;12.82;;
61702;SDS011;47622;47.726;3.298;2023-03-01T04:10:03;23.88;;;12.98;;
61702;SDS011;47622;47.726;3.298;2023-03-01T04:12:29;28.05;;;12.63;;
61702;SDS011;47622;47.726;3.298;2023-03-01T04:14:55;27.50;;;12.38;;
61702;SDS011;47622;47.726;3.298;2023-03-01T04:17:21;23.60;;;12.95;;
61702;SDS011;47622;47.726;3.298;2023-03-01T04:19:46;25.45;;;13.57;;
61702;SDS011;47622;47.726;3.298;2023-03-01T04:22:14;21.35;;;12.13;;
61702;SDS011;47622;47.726;3.298;2023-03-01T04:24:43;22.02;;;11.90;;
61702;SDS011;47622;47.726;3.298;2023-03-01T04:27:10;23.80;;;13.25;;
61702;SDS011;47622;47.726;3.298;2023-03-01T04:29:37;23.88;;;13.18;;
61702;SDS011;47622;47.726;3.298;2023-03-01T04:32:03;25.10;;;12.75;;
61702;SDS011;47622;47.726;3.298;2023-03-01T04:34:29;24.10;;;12.10;;
61702;SDS011;47622;47.726;3.298;2023-03-01T04:36:55;22.70;;;13.05;;
61702;SDS011;47622;47.726;3.298;2023-03-01T04:39:21;20.98;;;11.63;;
61702;SDS011;47622;47.726;3.298;2023-03-01T04:41:47;24.95;;;11.98;;
61702;SDS011;47622;47.726;3.298;2023-03-01T04:44:12;19.92;;;11.48;;
61702;SDS011;47622;47.726;3.298;2023-03-01T04:46:38;26.55;;;12.57;;
61702;SDS011;47622;47.726;3.298;2023-03-01T04:49:04;21.15;;;11.50;;
61702;SDS011;47622;47.726;3.298;2023-03-01T04:51:30;24.13;;;11.68;;
61702;SDS011;47622;47.726;3.298;2023-03-01T04:53:57;21.80;;;11.70;;
61702;SDS011;47622;47.726;3.298;2023-03-01T04:56:23;19.77;;;10.82;;
61702;SDS011;47622;47.726;3.298;2023-03-01T04:58:49;20.98;;;12.15;;
61702;SDS011;47622;47.726;3.298;2023-03-01T05:01:18;21.33;;;11.07;;
61702;SDS011;47622;47.726;3.298;2023-03-01T05:03:49;20.23;;;10.90;;
61702;SDS011;47622;47.726;3.298;2023-03-01T05:06:16;20.70;;;10.98;;
61702;SDS011;47622;47.726;3.298;2023-03-01T05:08:43;21.35;;;10.82;;
61702;SDS011;47622;47.726;3.298;2023-03-01T05:11:09;22.13;;;11.65;;
61702;SDS011;47622;47.726;3.298;2023-03-01T05:13:36;20.80;;;11.23;;
61702;SDS011;47622;47.726;3.298;2023-03-01T05:16:03;19.55;;;11.18;;
61702;SDS011;47622;47.726;3.298;2023-03-01T05:18:31;20.25;;;11.27;;
61702;SDS011;47622;47.726;3.298;2023-03-01T05:21:03;20.90;;;11.18;;
61702;SDS011;47622;47.726;3.298;2023-03-01T05:23:33;19.27;;;10.63;;
61702;SDS011;47622;47.726;3.298;2023-03-01T05:26:01;19.65;;;11.30;;
61702;SDS011;47622;47.726;3.298;2023-03-01T05:28:29;20.27;;;11.27;;
61702;SDS011;47622;47.726;3.298;2023-03-01T05:30:55;21.15;;;11.40;;
61702;SDS011;47622;47.726;3.298;2023-03-01T05:33:22;18.50;;;10.85;;
61702;SDS011;47622;47.726;3.298;2023-03-01T05:35:48;20.27;;;10.88;;
61702;SDS011;47622;47.726;3.298;2023-03-01T05:38:15;20.60;;;11.27;;
61702;SDS011;47622;47.726;3.298;2023-03-01T05:40:42;21.23;;;11.35;;
61702;SDS011;47622;47.726;3.298;2023-03-01T05:43:09;17.13;;;10.18;;
61702;SDS011;47622;47.726;3.298;2023-03-01T05:45:36;19.80;;;10.93;;
61702;SDS011;47622;47.726;3.298;2023-03-01T05:48:03;16.50;;;10.05;;
61702;SDS011;47622;47.726;3.298;2023-03-01T05:50:31;18.27;;;10.68;;
61702;SDS011;47622;47.726;3.298;2023-03-01T05:53:03;25.75;;;12.15;;
61702;SDS011;47622;47.726;3.298;2023-03-01T05:55:33;24.50;;;10.43;;
61702;SDS011;47622;47.726;3.298;2023-03-01T05:58:00;19.92;;;10.55;;
61702;SDS011;47622;47.726;3.298;2023-03-01T06:00:28;21.25;;;11.45;;
61702;SDS011;47622;47.726;3.298;2023-03-01T06:02:55;20.10;;;10.77;;
61702;SDS011;47622;47.726;3.298;2023-03-01T06:05:22;25.92;;;11.57;;
61702;SDS011;47622;47.726;3.298;2023-03-01T06:07:48;18.73;;;10.90;;
61702;SDS011;47622;47.726;3.298;2023-03-01T06:10:15;20.58;;;11.27;;
61702;SDS011;47622;47.726;3.298;2023-03-01T06:12:42;24.48;;;10.68;;
61702;SDS011;47622;47.726;3.298;2023-03-01T06:15:09;22.48;;;11.75;;
61702;SDS011;47622;47.726;3.298;2023-03-01T06:17:37;16.38;;;9.95;;
61702;SDS011;47622;47.726;3.298;2023-03-01T06:20:06;24.20;;;10.57;;
61702;SDS011;47622;47.726;3.298;2023-03-01T06:22:34;19.20;;;10.93;;
61702;SDS011;47622;47.726;3.298;2023-03-01T06:25:00;17.75;;;10.38;;
61702;SDS011;47622;47.726;3.298;2023-03-01T06:27:26;21.42;;;11.50;;
61702;SDS011;47622;47.726;3.298;2023-03-01T06:29:52;19.13;;;10.73;;
61702;SDS011;47622;47.726;3.298;2023-03-01T06:32:18;21.30;;;11.05;;
61702;SDS011;47622;47.726;3.298;2023-03-01T06:34:43;19.58;;;10.68;;
61702;SDS011;47622;47.726;3.298;2023-03-01T06:37:09;18.75;;;11.00;;
61702;SDS011;47622;47.726;3.298;2023-03-01T06:39:35;21.90;;;11.18;;
61702;SDS011;47622;47.726;3.298;2023-03-01T06:42:00;20.27;;;11.68;;
61702;SDS011;47622;47.726;3.298;2023-03-01T06:44:26;19.70;;;10.88;;
61702;SDS011;47622;47.726;3.298;2023-03-01T06:46:51;21.23;;;11.90;;
61702;SDS011;47622;47.726;3.298;2023-03-01T06:49:17;21.73;;;11.15;;
61702;SDS011;47622;47.726;3.298;2023-03-01T06:51:44;25.42;;;12.00;;
61702;SDS011;47622;47.726;3.298;2023-03-01T06:54:09;21.00;;;11.68;;
61702;SDS011;47622;47.726;3.298;2023-03-01T06:56:35;20.35;;;12.02;;
61702;SDS011;47622;47.726;3.298;2023-03-01T06:59:01;18.30;;;10.63;;
61702;SDS011;47622;47.726;3.298;2023-03-01T07:01:27;18.50;;;11.63;;
61702;SDS011;47622;47.726;3.298;2023-03-01T07:03:54;23.10;;;11.32;;
61702;SDS011;47622;47.726;3.298;2023-03-01T07:06:20;19.17;;;10.63;;
61702;SDS011;47622;47.726;3.298;2023-03-01T07:08:46;18.30;;;11.02;;
61702;SDS011;47622;47.726;3.298;2023-03-01T07:11:12;18.55;;;10.07;;
61702;SDS011;47622;47.726;3.298;2023-03-01T07:13:38;19.52;;;11.43;;
61702;SDS011;47622;47.726;3.298;2023-03-01T07:16:04;17.17;;;10.38;;
61702;SDS011;47622;47.726;3.298;2023-03-01T07:18:30;17.90;;;10.68;;
61702;SDS011;47622;47.726;3.298;2023-03-01T07:20:56;21.13;;;10.80;;
61702;SDS011;47622;47.726;3.298;2023-03-01T07:23:21;19.30;;;9.55;;
61702;SDS011;47622;47.726;3.298;2023-03-01T07:25:53;17.50;;;10.13;;
61702;SDS011;47622;47.726;3.298;2023-03-01T07:28:19;17.88;;;10.63;;
61702;SDS011;47622;47.726;3.298;2023-03-01T07:30:45;17.05;;;10.00;;
61702;SDS011;47622;47.726;3.298;2023-03-01T07:33:11;16.48;;;10.07;;
61702;SDS011;47622;47.726;3.298;2023-03-01T07:38:02;17.45;;;8.95;;
61702;SDS011;47622;47.726;3.298;2023-03-01T07:40:28;16.35;;;9.85;;
61702;SDS011;47622;47.726;3.298;2023-03-01T07:42:57;15.70;;;9.65;;
61702;SDS011;47622;47.726;3.298;2023-03-01T07:45:23;17.88;;;10.13;;
61702;SDS011;47622;47.726;3.298;2023-03-01T07:47:50;15.95;;;10.48;;
61702;SDS011;47622;47.726;3.298;2023-03-01T07:50:16;16.02;;;10.50;;
61702;SDS011;47622;47.726;3.298;2023-03-01T07:52:44;16.02;;;10.25;;
61702;SDS011;47622;47.726;3.298;2023-03-01T07:55:10;16.52;;;9.45;;
61702;SDS011;47622;47.726;3.298;2023-03-01T07:57:35;15.07;;;9.77;;
61702;SDS011;47622;47.726;3.298;2023-03-01T08:00:01;17.65;;;10.43;;
61702;SDS011;47622;47.726;3.298;2023-03-01T08:02:27;16.40;;;10.13;;
61702;SDS011;47622;47.726;3.298;2023-03-01T08:04:52;16.73;;;10.63;;
61702;SDS011;47622;47.726;3.298;2023-03-01T08:07:18;18.25;;;10.32;;
61702;SDS011;47622;47.726;3.298;2023-03-01T08:09:44;17.83;;;10.38;;
61702;SDS011;47622;47.726;3.298;2023-03-01T08:12:09;15.18;;;9.70;;
61702;SDS011;47622;47.726;3.298;2023-03-01T08:14:35;15.18;;;9.80;;
61702;SDS011;47622;47.726;3.298;2023-03-01T08:17:01;16.45;;;10.48;;
61702;SDS011;47622;47.726;3.298;2023-03-01T08:19:28;15.45;;;9.80;;
61702;SDS011;47622;47.726;3.298;2023-03-01T08:21:54;16.60;;;10.68;;
61702;SDS011;47622;47.726;3.298;2023-03-01T08:24:20;14.63;;;8.65;;
61702;SDS011;47622;47.726;3.298;2023-03-01T08:26:45;15.82;;;9.20;;
61702;SDS011;47622;47.726;3.298;2023-03-01T08:29:11;16.55;;;9.55;;
61702;SDS011;47622;47.726;3.298;2023-03-01T08:31:39;16.05;;;9.48;;
61702;SDS011;47622;47.726;3.298;2023-03-01T08:34:06;16.25;;;9.73;;
61702;SDS011;47622;47.726;3.298;2023-03-01T08:36:35;16.70;;;9.90;;
61702;SDS011;47622;47.726;3.298;2023-03-01T08:39:03;17.80;;;10.00;;
61702;SDS011;47622;47.726;3.298;2023-03-01T08:41:29;14.55;;;9.13;;
61702;SDS011;47622;47.726;3.298;2023-03-01T08:43:55;15.52;;;9.95;;
61702;SDS011;47622;47.726;3.298;2023-03-01T08:46:27;13.98;;;9.50;;
61702;SDS011;47622;47.726;3.298;2023-03-01T08:48:54;16.42;;;10.60;;
61702;SDS011;47622;47.726;3.298;2023-03-01T08:51:21;20.27;;;10.30;;
61702;SDS011;47622;47.726;3.298;2023-03-01T08:53:47;17.15;;;10.95;;
61702;SDS011;47622;47.726;3.298;2023-03-01T08:56:14;13.40;;;10.13;;
61702;SDS011;47622;47.726;3.298;2023-03-01T08:58:43;15.45;;;10.23;;
61702;SDS011;47622;47.726;3.298;2023-03-01T09:01:13;17.23;;;10.73;;
61702;SDS011;47622;47.726;3.298;2023-03-01T09:03:41;15.88;;;10.57;;
61702;SDS011;47622;47.726;3.298;2023-03-01T09:06:08;16.75;;;10.57;;
61702;SDS011;47622;47.726;3.298;2023-03-01T09:08:35;18.58;;;11.18;;
61702;SDS011;47622;47.726;3.298;2023-03-01T09:11:03;17.10;;;11.07;;
61702;SDS011;47622;47.726;3.298;2023-03-01T09:13:30;14.13;;;9.90;;
61702;SDS011;47622;47.726;3.298;2023-03-01T09:15:56;16.73;;;10.68;;
61702;SDS011;47622;47.726;3.298;2023-03-01T09:18:23;17.90;;;10.57;;
61702;SDS011;47622;47.726;3.298;2023-03-01T09:20:49;16.20;;;10.23;;
61702;SDS011;47622;47.726;3.298;2023-03-01T09:23:14;16.95;;;11.35;;
61702;SDS011;47622;47.726;3.298;2023-03-01T09:25:40;17.00;;;11.32;;
61702;SDS011;47622;47.726;3.298;2023-03-01T09:28:05;14.30;;;10.65;;
61702;SDS011;47622;47.726;3.298;2023-03-01T09:30:31;17.13;;;11.05;;
61702;SDS011;47622;47.726;3.298;2023-03-01T09:32:57;18.10;;;11.15;;
61702;SDS011;47622;47.726;3.298;2023-03-01T09:35:22;17.25;;;12.07;;
61702;SDS011;47622;47.726;3.298;2023-03-01T09:37:48;16.58;;;11.13;;
61702;SDS011;47622;47.726;3.298;2023-03-01T09:40:16;17.55;;;11.38;;
61702;SDS011;47622;47.726;3.298;2023-03-01T09:43:01;16.80;;;10.90;;
61702;SDS011;47622;47.726;3.298;2023-03-01T09:45:39;18.88;;;11.63;;
61702;SDS011;47622;47.726;3.298;2023-03-01T09:48:18;16.73;;;10.32;;
61702;SDS011;47622;47.726;3.298;2023-03-01T09:50:48;17.73;;;11.20;;
61702;SDS011;47622;47.726;3.298;2023-03-01T09:53:16;15.32;;;10.30;;
61702;SDS011;47622;47.726;3.298;2023-03-01T09:56:00;16.92;;;11.43;;
61702;SDS011;47622;47.726;3.298;2023-03-01T09:58:48;17.60;;;11.70;;
61702;SDS011;47622;47.726;3.298;2023-03-01T10:01:29;15.70;;;10.75;;
61702;SDS011;47622;47.726;3.298;2023-03-01T10:08:19;18.88;;;11.27;;
61702;SDS011;47622;47.726;3.298;2023-03-01T10:10:26;18.98;;;11.40;;
61702;SDS011;47622;47.726;3.298;2023-03-01T10:12:57;16.10;;;10.95;;
61702;SDS011;47622;47.726;3.298;2023-03-01T10:15:35;19.10;;;12.05;;
61702;SDS011;47622;47.726;3.298;2023-03-01T10:18:10;18.02;;;11.52;;
61702;SDS011;47622;47.726;3.298;2023-03-01T10:23:13;15.95;;;11.40;;
61702;SDS011;47622;47.726;3.298;2023-03-01T10:25:47;17.65;;;11.57;;
61702;SDS011;47622;47.726;3.298;2023-03-01T10:31:24;15.43;;;10.60;;
61702;SDS011;47622;47.726;3.298;2023-03-01T10:33:54;17.98;;;12.25;;
61702;SDS011;47622;47.726;3.298;2023-03-01T10:36:22;22.10;;;12.45;;
61702;SDS011;47622;47.726;3.298;2023-03-01T10:38:50;18.70;;;12.00;;
61702;SDS011;47622;47.726;3.298;2023-03-01T10:41:19;18.10;;;11.60;;
61702;SDS011;47622;47.726;3.298;2023-03-01T10:43:52;17.42;;;11.93;;
61702;SDS011;47622;47.726;3.298;2023-03-01T10:49:16;18.30;;;12.40;;
61702;SDS011;47622;47.726;3.298;2023-03-01T10:51:44;18.88;;;13.02;;
61702;SDS011;47622;47.726;3.298;2023-03-01T10:54:31;18.40;;;13.10;;
61702;SDS011;47622;47.726;3.298;2023-03-01T10:57:02;20.50;;;12.85;;
61702;SDS011;47622;47.726;3.298;2023-03-01T10:59:32;20.15;;;13.40;;
61702;SDS011;47622;47.726;3.298;2023-03-01T11:02:16;18.83;;;13.38;;
61702;SDS011;47622;47.726;3.298;2023-03-01T11:05:00;20.05;;;13.98;;
61702;SDS011;47622;47.726;3.298;2023-03-01T11:07:28;21.77;;;14.25;;
61702;SDS011;47622;47.726;3.298;2023-03-01T11:09:54;23.08;;;13.85;;
61702;SDS011;47622;47.726;3.298;2023-03-01T11:12:20;21.42;;;13.68;;
61702;SDS011;47622;47.726;3.298;2023-03-01T11:14:47;25.00;;;14.38;;
61702;SDS011;47622;47.726;3.298;2023-03-01T11:17:23;21.45;;;13.65;;
61702;SDS011;47622;47.726;3.298;2023-03-01T11:22:42;21.25;;;14.35;;
61702;SDS011;47622;47.726;3.298;2023-03-01T11:27:43;21.33;;;13.45;;
61702;SDS011;47622;47.726;3.298;2023-03-01T11:30:29;24.52;;;13.60;;
61702;SDS011;47622;47.726;3.298;2023-03-01T11:35:34;20.67;;;13.88;;
61702;SDS011;47622;47.726;3.298;2023-03-01T11:38:16;27.23;;;14.38;;
61702;SDS011;47622;47.726;3.298;2023-03-01T11:40:49;26.25;;;14.65;;
61702;SDS011;47622;47.726;3.298;2023-03-01T11:51:53;22.35;;;12.93;;
61702;SDS011;47622;47.726;3.298;2023-03-01T12:17:00;26.40;;;14.07;;
61702;SDS011;47622;47.726;3.298;2023-03-01T12:22:58;24.38;;;15.05;;
61702;SDS011;47622;47.726;3.298;2023-03-01T12:31:08;23.83;;;14.88;;
61702;SDS011;47622;47.726;3.298;2023-03-01T12:33:45;22.45;;;14.70;;
61702;SDS011;47622;47.726;3.298;2023-03-01T12:41:43;24.00;;;15.43;;
61702;SDS011;47622;47.726;3.298;2023-03-01T12:49:38;24.25;;;15.68;;
61702;SDS011;47622;47.726;3.298;2023-03-01T12:55:01;21.52;;;14.32;;
61702;SDS011;47622;47.726;3.298;2023-03-01T12:57:33;25.42;;;16.17;;
61702;SDS011;47622;47.726;3.298;2023-03-01T13:02:51;27.85;;;15.43;;
61702;SDS011;47622;47.726;3.298;2023-03-01T13:05:27;24.50;;;14.90;;
61702;SDS011;47622;47.726;3.298;2023-03-01T13:11:40;24.33;;;14.48;;
61702;SDS011;47622;47.726;3.298;2023-03-01T13:13:45;23.25;;;14.55;;
61702;SDS011;47622;47.726;3.298;2023-03-01T13:16:56;30.90;;;16.65;;
61702;SDS011;47622;47.726;3.298;2023-03-01T13:19:18;28.33;;;15.70;;
61702;SDS011;47622;47.726;3.298;2023-03-01T13:21:45;30.05;;;15.60;;
61702;SDS011;47622;47.726;3.298;2023-03-01T13:24:28;22.70;;;14.45;;
61702;SDS011;47622;47.726;3.298;2023-03-01T13:29:46;24.23;;;15.25;;
61702;SDS011;47622;47.726;3.298;2023-03-01T13:32:20;25.73;;;16.88;;
61702;SDS011;47622;47.726;3.298;2023-03-01T13:34:51;30.20;;;17.20;;
61702;SDS011;47622;47.726;3.298;2023-03-01T13:37:19;28.70;;;16.73;;
61702;SDS011;47622;47.726;3.298;2023-03-01T13:39:47;26.17;;;16.00;;
61702;SDS011;47622;47.726;3.298;2023-03-01T13:42:33;25.73;;;15.85;;
61702;SDS011;47622;47.726;3.298;2023-03-01T13:45:03;24.90;;;16.15;;
61702;SDS011;47622;47.726;3.298;2023-03-01T13:47:30;27.02;;;17.00;;
61702;SDS011;47622;47.726;3.298;2023-03-01T13:50:00;28.05;;;16.48;;
61702;SDS011;47622;47.726;3.298;2023-03-01T13:57:39;27.63;;;16.10;;
61702;SDS011;47622;47.726;3.298;2023-03-01T14:00:06;27.45;;;16.80;;
61702;SDS011;47622;47.726;3.298;2023-03-01T14:02:59;31.20;;;17.23;;
61702;SDS011;47622;47.726;3.298;2023-03-01T14:05:25;26.13;;;16.08;;
61702;SDS011;47622;47.726;3.298;2023-03-01T14:07:52;27.67;;;17.75;;
61702;SDS011;47622;47.726;3.298;2023-03-01T14:10:17;28.13;;;16.33;;
61702;SDS011;47622;47.726;3.298;2023-03-01T14:12:54;28.50;;;16.88;;
61702;SDS011;47622;47.726;3.298;2023-03-01T14:16:13;29.13;;;16.60;;
61702;SDS011;47622;47.726;3.298;2023-03-01T14:18:48;26.70;;;16.17;;
61702;SDS011;47622;47.726;3.298;2023-03-01T14:21:17;24.80;;;15.88;;
61702;SDS011;47622;47.726;3.298;2023-03-01T14:23:43;31.95;;;17.02;;
61702;SDS011;47622;47.726;3.298;2023-03-01T14:26:09;26.85;;;16.33;;
61702;SDS011;47622;47.726;3.298;2023-03-01T14:28:37;27.73;;;17.33;;
61702;SDS011;47622;47.726;3.298;2023-03-01T14:31:25;29.50;;;17.67;;
61702;SDS011;47622;47.726;3.298;2023-03-01T14:33:58;29.08;;;16.85;;
61702;SDS011;47622;47.726;3.298;2023-03-01T14:36:28;27.35;;;16.98;;
61702;SDS011;47622;47.726;3.298;2023-03-01T14:38:57;29.73;;;16.60;;
61702;SDS011;47622;47.726;3.298;2023-03-01T14:41:34;28.58;;;17.83;;
61702;SDS011;47622;47.726;3.298;2023-03-01T14:46:41;28.83;;;17.27;;
61702;SDS011;47622;47.726;3.298;2023-03-01T14:49:16;31.52;;;15.98;;
61702;SDS011;47622;47.726;3.298;2023-03-01T14:52:03;31.63;;;18.35;;
61702;SDS011;47622;47.726;3.298;2023-03-01T14:54:39;27.90;;;16.92;;
61702;SDS011;47622;47.726;3.298;2023-03-01T14:57:19;27.50;;;16.80;;
61702;SDS011;47622;47.726;3.298;2023-03-01T14:59:47;33.45;;;17.80;;
61702;SDS011;47622;47.726;3.298;2023-03-01T15:02:15;28.48;;;16.67;;
61702;SDS011;47622;47.726;3.298;2023-03-01T15:04:51;27.80;;;16.52;;
61702;SDS011;47622;47.726;3.298;2023-03-01T15:07:21;30.17;;;18.58;;
61702;SDS011;47622;47.726;3.298;2023-03-01T15:09:51;25.85;;;15.52;;
61702;SDS011;47622;47.726;3.298;2023-03-01T15:12:50;32.17;;;17.88;;
61702;SDS011;47622;47.726;3.298;2023-03-01T15:15:26;27.38;;;17.10;;
61702;SDS011;47622;47.726;3.298;2023-03-01T15:20:52;25.95;;;15.75;;
61702;SDS011;47622;47.726;3.298;2023-03-01T15:25:52;28.83;;;17.67;;
61702;SDS011;47622;47.726;3.298;2023-03-01T15:28:25;30.25;;;17.08;;
61702;SDS011;47622;47.726;3.298;2023-03-01T15:31:02;32.38;;;17.30;;
61702;SDS011;47622;47.726;3.298;2023-03-01T15:33:32;29.58;;;17.02;;
61702;SDS011;47622;47.726;3.298;2023-03-01T15:36:01;30.65;;;17.55;;
61702;SDS011;47622;47.726;3.298;2023-03-01T15:41:21;30.90;;;17.75;;
61702;SDS011;47622;47.726;3.298;2023-03-01T15:43:50;30.33;;;16.98;;
61702;SDS011;47622;47.726;3.298;2023-03-01T15:48:55;30.70;;;17.33;;
61702;SDS011;47622;47.726;3.298;2023-03-01T15:51:28;28.92;;;17.70;;
61702;SDS011;47622;47.726;3.298;2023-03-01T15:54:22;31.05;;;18.08;;
61702;SDS011;47622;47.726;3.298;2023-03-01T15:56:47;29.77;;;18.23;;
61702;SDS011;47622;47.726;3.298;2023-03-01T15:59:13;31.55;;;18.42;;
61702;SDS011;47622;47.726;3.298;2023-03-01T16:01:42;30.50;;;17.70;;
61702;SDS011;47622;47.726;3.298;2023-03-01T16:04:12;29.52;;;17.75;;
61702;SDS011;47622;47.726;3.298;2023-03-01T16:06:49;29.27;;;16.92;;
61702;SDS011;47622;47.726;3.298;2023-03-01T16:09:22;33.63;;;18.90;;
61702;SDS011;47622;47.726;3.298;2023-03-01T16:11:49;30.70;;;17.75;;
61702;SDS011;47622;47.726;3.298;2023-03-01T16:14:16;32.05;;;17.77;;
61702;SDS011;47622;47.726;3.298;2023-03-01T16:16:42;28.52;;;17.90;;
61702;SDS011;47622;47.726;3.298;2023-03-01T16:19:08;33.10;;;17.85;;
61702;SDS011;47622;47.726;3.298;2023-03-01T16:21:33;33.47;;;18.73;;
61702;SDS011;47622;47.726;3.298;2023-03-01T16:24:00;33.38;;;18.67;;
61702;SDS011;47622;47.726;3.298;2023-03-01T16:26:25;30.70;;;17.45;;
61702;SDS011;47622;47.726;3.298;2023-03-01T16:28:54;32.58;;;18.10;;
61702;SDS011;47622;47.726;3.298;2023-03-01T16:31:21;32.28;;;17.98;;
61702;SDS011;47622;47.726;3.298;2023-03-01T16:33:48;31.42;;;18.23;;